Time;durP1;ratioP1;P1;durP2;ratioP2;P2;SDS_P1;SDS_P2;PMS_P1;PMS_P2;Temp;Humidity;BMP_temperature;BMP_pressure;BME280_temperature;BME280_humidity;BME280_pressure;Samples;Min_cycle;Max_cycle;Signal;HPM_P1;HPM_P2
2022/10/18 00:01:35;;;;;;;6.22;3.30;;;18.10;99.90;;;;;;5048491;28;20021;-87
2022/10/18 00:04:07;;;;;;;10.57;3.55;;;18.10;99.90;;;;;;5045882;28;20017;-88
2022/10/18 00:06:33;;;;;;;5.65;3.20;;;18.10;99.90;;;;;;5050911;28;20436;-87
2022/10/18 00:08:59;;;;;;;6.97;3.45;;;18.00;99.90;;;;;;5056394;28;20040;-87
2022/10/18 00:11:24;;;;;;;6.55;3.78;;;18.00;99.90;;;;;;5059361;28;20016;-87
2022/10/18 00:13:50;;;;;;;6.88;3.72;;;17.90;99.90;;;;;;5057011;28;20025;-87
2022/10/18 00:16:17;;;;;;;9.52;3.80;;;17.90;99.90;;;;;;5050561;28;20045;-87
2022/10/18 00:18:44;;;;;;;8.07;3.60;;;17.90;99.90;;;;;;5057133;28;20044;-88
2022/10/18 00:21:16;;;;;;;3.92;3.25;;;17.90;99.90;;;;;;5052171;28;20516;-87
2022/10/18 00:23:43;;;;;;;5.88;3.42;;;17.70;99.90;;;;;;5049420;28;20032;-87
2022/10/18 00:26:13;;;;;;;12.70;5.40;;;17.70;99.90;;;;;;5052527;28;20037;-87
2022/10/18 00:28:40;;;;;;;10.60;4.00;;;17.70;99.90;;;;;;5059318;28;20025;-87
2022/10/18 00:31:16;;;;;;;6.75;4.18;;;17.70;99.90;;;;;;5040295;28;20024;-87
2022/10/18 00:33:44;;;;;;;10.45;3.95;;;17.60;99.90;;;;;;5055203;28;20028;-87
2022/10/18 00:36:10;;;;;;;5.03;3.60;;;17.70;99.90;;;;;;5043236;28;20505;-88
2022/10/18 00:38:36;;;;;;;13.25;3.95;;;17.60;99.90;;;;;;5056873;28;20017;-87
2022/10/18 00:41:11;;;;;;;5.95;3.78;;;17.70;99.90;;;;;;5058738;28;20028;-88
2022/10/18 00:44:17;;;;;;;7.03;4.32;;;17.60;99.90;;;;;;5062555;28;20075;-87
2022/10/18 00:46:45;;;;;;;5.30;3.33;;;17.60;99.90;;;;;;5059302;28;20040;-87
2022/10/18 00:49:32;;;;;;;5.93;3.90;;;17.60;99.90;;;;;;5049681;28;20094;-87
2022/10/18 00:52:05;;;;;;;4.80;3.42;;;17.60;99.90;;;;;;5044053;28;20028;-87
2022/10/18 00:54:34;;;;;;;11.27;4.28;;;17.60;99.90;;;;;;5052758;28;20024;-88
2022/10/18 00:57:06;;;;;;;8.55;4.13;;;17.60;99.90;;;;;;5059986;28;20064;-88
2022/10/18 00:59:32;;;;;;;14.48;4.72;;;17.60;99.90;;;;;;5055332;28;20056;-87
2022/10/18 01:01:58;;;;;;;5.97;4.25;;;17.60;99.90;;;;;;5049182;28;20549;-87
2022/10/18 01:04:24;;;;;;;5.72;3.58;;;17.50;99.90;;;;;;5051394;28;20116;-87
2022/10/18 01:07:02;;;;;;;5.90;4.15;;;17.50;99.90;;;;;;5055787;28;20040;-88
2022/10/18 01:09:36;;;;;;;8.98;4.57;;;17.50;99.90;;;;;;5045745;28;20116;-87
2022/10/18 01:12:28;;;;;;;8.30;4.30;;;17.50;99.90;;;;;;5044431;28;20524;-88
2022/10/18 01:15:07;;;;;;;10.93;5.43;;;17.60;99.90;;;;;;5051232;28;20036;-88
2022/10/18 01:17:40;;;;;;;13.43;6.43;;;17.60;99.90;;;;;;5045090;28;20066;-87
2022/10/18 01:20:08;;;;;;;11.70;4.90;;;17.60;99.90;;;;;;5036498;28;20032;-87
2022/10/18 01:22:42;;;;;;;8.88;5.47;;;17.60;99.90;;;;;;5050826;28;20025;-87
2022/10/18 01:25:43;;;;;;;11.82;6.53;;;17.60;99.90;;;;;;5049130;28;20111;-87
2022/10/18 01:28:32;;;;;;;11.95;6.28;;;17.70;99.90;;;;;;5042568;28;20095;-87
2022/10/18 01:31:00;;;;;;;14.23;5.97;;;17.60;99.90;;;;;;5050717;28;20128;-87
2022/10/18 01:33:37;;;;;;;10.82;5.85;;;17.70;99.90;;;;;;5048726;28;20363;-87
2022/10/18 01:36:09;;;;;;;9.75;6.20;;;17.70;99.90;;;;;;5040556;28;20112;-88
2022/10/18 01:38:37;;;;;;;13.65;7.43;;;17.60;99.90;;;;;;5054296;28;20532;-87
2022/10/18 01:41:05;;;;;;;13.95;6.65;;;17.60;99.90;;;;;;5046883;28;20087;-87
2022/10/18 01:43:32;;;;;;;7.15;5.38;;;17.60;99.90;;;;;;5050741;28;20033;-87
2022/10/18 01:45:59;;;;;;;7.63;5.35;;;17.70;99.90;;;;;;5052498;28;20037;-87
2022/10/18 01:48:25;;;;;;;13.73;6.93;;;17.60;99.90;;;;;;5050706;28;20107;-87
2022/10/18 01:50:52;;;;;;;15.60;8.40;;;17.60;99.90;;;;;;5058308;28;20064;-87
2022/10/18 01:53:29;;;;;;;12.75;8.85;;;17.50;99.90;;;;;;5051558;28;20070;-87
2022/10/18 01:56:16;;;;;;;15.13;8.75;;;17.50;99.90;;;;;;5045070;28;20057;-88
2022/10/18 01:59:06;;;;;;;8.43;6.72;;;17.40;99.90;;;;;;5039773;28;20043;-88
2022/10/18 02:01:39;;;;;;;16.73;10.35;;;17.30;99.90;;;;;;5049261;28;20037;-88
2022/10/18 02:04:36;;;;;;;12.05;9.73;;;17.40;99.90;;;;;;5054822;28;20855;-88
2022/10/18 02:07:36;;;;;;;12.65;7.47;;;17.30;99.90;;;;;;5049884;28;20033;-88
2022/10/18 02:10:16;;;;;;;17.33;8.07;;;17.20;99.90;;;;;;5049904;28;20428;-89
2022/10/18 02:12:46;;;;;;;11.20;7.05;;;17.20;99.90;;;;;;5051398;28;20021;-88
2022/10/18 02:15:18;;;;;;;9.43;6.95;;;17.10;99.90;;;;;;5049444;28;20028;-88
2022/10/18 02:17:45;;;;;;;10.63;6.43;;;17.00;99.90;;;;;;5041056;28;20025;-88
2022/10/18 02:20:13;;;;;;;8.85;6.43;;;17.00;99.90;;;;;;5057155;28;20477;-87
2022/10/18 02:22:41;;;;;;;8.98;5.88;;;16.90;99.90;;;;;;5053156;28;20492;-86
2022/10/18 02:25:12;;;;;;;8.85;4.55;;;16.90;99.90;;;;;;5047046;28;20036;-88
2022/10/18 02:27:38;;;;;;;8.65;5.60;;;16.80;99.90;;;;;;5043305;28;20041;-89
2022/10/18 02:30:04;;;;;;;9.82;5.90;;;16.70;99.90;;;;;;5054281;28;20544;-92
2022/10/18 02:32:39;;;;;;;11.00;5.22;;;16.70;99.90;;;;;;5049691;28;20033;-88
2022/10/18 02:35:14;;;;;;;12.55;6.05;;;16.70;99.90;;;;;;5047631;28;20512;-89
2022/10/18 02:37:41;;;;;;;11.18;6.10;;;16.60;99.90;;;;;;5051871;28;20040;-88
2022/10/18 02:40:09;;;;;;;10.40;5.50;;;16.60;99.90;;;;;;5050611;28;20432;-89
2022/10/18 02:42:48;;;;;;;7.60;4.20;;;16.50;99.90;;;;;;5059045;28;20031;-87
2022/10/18 02:45:14;;;;;;;9.63;6.30;;;16.40;99.90;;;;;;5056093;28;20024;-88
2022/10/18 02:47:40;;;;;;;11.05;5.85;;;16.40;99.90;;;;;;5059799;28;20094;-87
2022/10/18 02:50:07;;;;;;;11.32;5.28;;;16.50;99.90;;;;;;5053461;28;20028;-91
2022/10/18 02:52:33;;;;;;;9.80;5.88;;;16.40;99.90;;;;;;5060710;28;20432;-88
2022/10/18 02:55:06;;;;;;;9.88;6.53;;;16.30;99.90;;;;;;5059008;28;20037;-88
2022/10/18 02:57:32;;;;;;;11.68;6.45;;;16.30;99.90;;;;;;5063276;28;20121;-90
2022/10/18 03:00:00;;;;;;;9.07;5.93;;;16.20;99.90;;;;;;5060284;28;20056;-88
2022/10/18 03:02:26;;;;;;;7.43;4.78;;;16.30;99.90;;;;;;5051525;28;20519;-88
2022/10/18 03:04:52;;;;;;;12.30;6.32;;;16.20;99.90;;;;;;5060779;28;20036;-88
2022/10/18 03:07:17;;;;;;;9.25;7.30;;;16.30;99.90;;;;;;5057557;28;20037;-88
2022/10/18 03:09:43;;;;;;;6.82;6.15;;;16.30;99.90;;;;;;5062576;28;20033;-88
2022/10/18 03:12:09;;;;;;;17.52;7.15;;;16.20;99.90;;;;;;5049373;28;20044;-87
2022/10/18 03:14:34;;;;;;;10.93;7.07;;;16.30;99.90;;;;;;5050781;28;20021;-88
2022/10/18 03:17:00;;;;;;;13.88;7.38;;;16.20;99.90;;;;;;5058863;28;20029;-89
2022/10/18 03:19:25;;;;;;;9.82;5.78;;;16.10;99.90;;;;;;5051290;28;20086;-89
2022/10/18 03:21:51;;;;;;;10.48;5.72;;;16.10;99.90;;;;;;5062009;28;20042;-88
2022/10/18 03:24:17;;;;;;;6.57;5.22;;;16.10;99.90;;;;;;5056709;28;20035;-89
2022/10/18 03:26:42;;;;;;;4.45;3.92;;;16.00;99.90;;;;;;5054292;28;20037;-88
2022/10/18 03:29:09;;;;;;;4.18;3.72;;;16.00;99.90;;;;;;5056385;28;20079;-88
2022/10/18 03:31:35;;;;;;;7.68;4.22;;;16.00;99.90;;;;;;5051766;28;20480;-88
2022/10/18 03:34:00;;;;;;;7.97;4.35;;;16.00;99.90;;;;;;5053228;28;20112;-89
2022/10/18 03:36:26;;;;;;;6.60;4.30;;;16.10;99.90;;;;;;5055307;28;20037;-89
2022/10/18 03:38:58;;;;;;;3.90;3.40;;;16.10;99.90;;;;;;5045569;28;20335;-89
2022/10/18 03:41:23;;;;;;;5.40;3.15;;;16.10;99.90;;;;;;5046740;28;20037;-89
2022/10/18 03:43:49;;;;;;;8.32;5.25;;;16.00;99.90;;;;;;5047090;28;20033;-89
2022/10/18 03:46:14;;;;;;;9.80;5.15;;;16.10;99.90;;;;;;5049272;28;20047;-89
2022/10/18 03:48:40;;;;;;;6.15;4.63;;;16.10;99.90;;;;;;5054001;28;20116;-88
2022/10/18 03:51:05;;;;;;;7.72;4.28;;;16.10;99.90;;;;;;5048616;28;20028;-89
2022/10/18 03:53:31;;;;;;;5.28;4.35;;;16.00;99.90;;;;;;5049592;28;20033;-90
2022/10/18 03:55:57;;;;;;;5.60;4.13;;;16.00;99.90;;;;;;5050260;28;20052;-89
2022/10/18 03:59:50;;;;;;;;;;;;;;;;;;;;;
2022/10/18 04:05:47;;;;;;;7.05;3.70;;;15.90;99.90;;;;;;4983454;28;20037;-88
2022/10/18 04:08:38;;;;;;;4.97;4.05;;;15.90;99.90;;;;;;5055136;28;20052;-88
2022/10/18 04:11:44;;;;;;;5.40;3.38;;;15.80;99.90;;;;;;5056891;28;20434;-89
2022/10/18 04:14:57;;;;;;;11.95;4.40;;;15.90;99.90;;;;;;5056700;28;20024;-89
2022/10/18 04:17:45;;;;;;;5.13;3.63;;;15.90;99.90;;;;;;5053617;28;20407;-89
2022/10/18 04:20:38;;;;;;;9.15;4.30;;;15.90;99.90;;;;;;5056169;28;20044;-88
2022/10/18 04:23:12;;;;;;;5.57;2.92;;;15.80;99.90;;;;;;5056251;28;20049;-88
2022/10/18 04:25:52;;;;;;;5.63;3.00;;;15.80;99.90;;;;;;5054464;28;20466;-89
2022/10/18 04:28:17;;;;;;;7.97;3.70;;;15.80;99.90;;;;;;5058231;28;20045;-89
2022/10/18 04:31:11;;;;;;;6.85;3.10;;;15.70;99.90;;;;;;5053773;28;20025;-89
2022/10/18 04:40:15;;;;;;;6.25;3.45;;;15.60;99.90;;;;;;4978285;28;20146;-90
2022/10/18 04:43:06;;;;;;;6.43;3.60;;;15.60;99.90;;;;;;5049903;28;20030;-89
2022/10/18 04:45:33;;;;;;;7.57;3.70;;;15.60;99.90;;;;;;5046152;28;20110;-89
2022/10/18 04:47:58;;;;;;;6.40;3.78;;;15.60;99.90;;;;;;5056236;28;20044;-90
2022/10/18 04:50:24;;;;;;;6.22;3.45;;;15.60;99.90;;;;;;5051450;28;20525;-90
2022/10/18 04:52:50;;;;;;;7.10;4.18;;;15.60;99.90;;;;;;5057136;28;20060;-90
2022/10/18 04:55:16;;;;;;;6.55;4.20;;;15.60;99.90;;;;;;5050096;28;20082;-90
2022/10/18 04:57:41;;;;;;;12.35;4.80;;;15.50;99.90;;;;;;5045526;28;20029;-92
2022/10/18 05:00:07;;;;;;;6.50;4.15;;;15.50;99.90;;;;;;5039576;28;20021;-91
2022/10/18 05:02:33;;;;;;;9.50;5.05;;;15.40;99.90;;;;;;5042930;28;20029;-91
2022/10/18 05:05:02;;;;;;;8.73;4.65;;;15.40;99.90;;;;;;5050424;28;20032;-91
2022/10/18 05:07:27;;;;;;;6.30;4.03;;;15.40;99.90;;;;;;5045453;28;20037;-92
2022/10/18 05:09:53;;;;;;;6.15;3.58;;;15.40;99.90;;;;;;5037716;28;20036;-91
2022/10/18 05:12:18;;;;;;;5.30;3.75;;;15.40;99.90;;;;;;5042884;28;20036;-92
2022/10/18 05:14:44;;;;;;;5.25;4.10;;;15.30;99.90;;;;;;5051319;28;20021;-90
2022/10/18 05:17:12;;;;;;;4.60;3.55;;;15.40;99.90;;;;;;5058361;28;20067;-90
2022/10/18 05:19:38;;;;;;;5.93;3.58;;;15.40;99.90;;;;;;5048679;28;20029;-89
2022/10/18 05:22:10;;;;;;;9.30;4.75;;;15.40;99.90;;;;;;5055838;28;20083;-88
2022/10/18 05:24:35;;;;;;;6.65;5.28;;;15.40;99.90;;;;;;5047209;28;20021;-88
2022/10/18 05:27:04;;;;;;;13.02;6.25;;;15.40;99.90;;;;;;5038517;28;20036;-87
2022/10/18 05:29:29;;;;;;;14.18;8.25;;;15.50;99.90;;;;;;5047055;28;20032;-87
2022/10/18 05:31:55;;;;;;;9.88;6.85;;;15.40;99.90;;;;;;5046114;28;20033;-86
2022/10/18 05:34:21;;;;;;;10.73;6.30;;;15.40;99.90;;;;;;5048450;28;20083;-86
2022/10/18 05:36:48;;;;;;;17.45;8.63;;;15.40;99.90;;;;;;5049718;28;20075;-86
2022/10/18 05:39:14;;;;;;;14.18;6.25;;;15.40;99.90;;;;;;5052149;28;20056;-86
2022/10/18 05:41:40;;;;;;;17.75;7.20;;;15.40;99.90;;;;;;5045762;28;20052;-86
2022/10/18 05:44:05;;;;;;;16.25;9.35;;;15.40;99.90;;;;;;5048881;28;20040;-87
2022/10/18 05:46:31;;;;;;;16.67;10.77;;;15.40;99.90;;;;;;5046587;28;20029;-86
2022/10/18 05:49:06;;;;;;;17.73;10.43;;;15.30;99.90;;;;;;5040898;28;20033;-86
2022/10/18 05:51:31;;;;;;;25.08;10.75;;;15.40;99.90;;;;;;5039889;28;20030;-86
2022/10/18 05:53:59;;;;;;;19.42;9.95;;;15.30;99.90;;;;;;5038094;28;20108;-86
2022/10/18 05:56:25;;;;;;;15.73;10.23;;;15.40;99.90;;;;;;5040468;28;20025;-86
2022/10/18 05:58:51;;;;;;;17.05;11.32;;;15.40;99.90;;;;;;5037321;28;20359;-86
2022/10/18 06:01:18;;;;;;;21.00;13.43;;;15.30;99.90;;;;;;5038464;28;20284;-85
2022/10/18 06:03:43;;;;;;;17.90;11.52;;;15.30;99.90;;;;;;5039087;28;20033;-86
2022/10/18 06:06:10;;;;;;;23.58;12.50;;;15.30;99.90;;;;;;5044958;28;20036;-86
2022/10/18 06:08:39;;;;;;;18.83;12.63;;;15.30;99.90;;;;;;5047432;28;20029;-86
2022/10/18 06:11:18;;;;;;;21.50;12.70;;;15.30;99.90;;;;;;5051642;28;20035;-86
2022/10/18 06:13:46;;;;;;;24.38;13.68;;;15.30;99.90;;;;;;5047523;28;20111;-86
2022/10/18 06:16:13;;;;;;;25.35;13.85;;;15.20;99.90;;;;;;5060753;28;20125;-85
2022/10/18 06:18:39;;;;;;;22.50;13.50;;;15.20;99.90;;;;;;5050989;28;20026;-85
2022/10/18 06:21:06;;;;;;;19.27;13.20;;;15.20;99.90;;;;;;5036995;28;20056;-86
2022/10/18 06:23:31;;;;;;;23.30;12.55;;;15.20;99.90;;;;;;5041989;28;20410;-85
2022/10/18 06:26:08;;;;;;;19.10;10.98;;;15.10;99.90;;;;;;5049538;28;20037;-85
2022/10/18 06:28:35;;;;;;;18.05;11.80;;;15.20;99.90;;;;;;5047991;28;20032;-85
2022/10/18 06:31:04;;;;;;;23.02;12.80;;;15.20;99.90;;;;;;5042208;28;20385;-85
2022/10/18 06:33:31;;;;;;;25.42;12.60;;;15.20;99.90;;;;;;5053054;28;20037;-85
2022/10/18 06:36:09;;;;;;;17.40;11.23;;;15.20;99.90;;;;;;5049680;28;20029;-86
2022/10/18 06:38:35;;;;;;;17.58;8.15;;;15.20;99.90;;;;;;5006522;28;20064;-85
2022/10/18 06:41:01;;;;;;;17.17;8.25;;;15.10;99.90;;;;;;5007616;28;20464;-85
2022/10/18 06:43:27;;;;;;;11.35;6.90;;;15.10;99.90;;;;;;5010987;28;20030;-84
2022/10/18 06:45:53;;;;;;;12.00;6.65;;;15.10;99.90;;;;;;5001928;28;20030;-84
2022/10/18 06:48:19;;;;;;;12.80;6.40;;;15.00;99.90;;;;;;5004372;28;20491;-84
2022/10/18 06:50:56;;;;;;;14.50;6.05;;;15.00;99.90;;;;;;5004188;28;20026;-84
2022/10/18 06:53:23;;;;;;;10.50;5.30;;;14.90;99.90;;;;;;5009868;28;20030;-84
2022/10/18 06:55:49;;;;;;;10.75;5.18;;;14.90;99.90;;;;;;5008808;28;20358;-84
2022/10/18 06:58:15;;;;;;;8.63;4.32;;;14.90;99.90;;;;;;5005778;28;20121;-84
2022/10/18 07:00:40;;;;;;;7.75;4.00;;;14.90;99.90;;;;;;5000480;28;20073;-84
2022/10/18 07:03:06;;;;;;;9.45;4.22;;;14.80;99.90;;;;;;5003846;28;20030;-84
2022/10/18 07:05:31;;;;;;;7.13;3.25;;;14.80;99.90;;;;;;4993014;28;20037;-84
2022/10/18 07:08:00;;;;;;;7.10;3.70;;;14.80;99.90;;;;;;5005058;28;20077;-84
2022/10/18 07:10:26;;;;;;;9.13;4.70;;;14.80;99.90;;;;;;5008591;28;20030;-84
2022/10/18 07:12:51;;;;;;;7.30;3.63;;;14.80;99.90;;;;;;5002245;28;20479;-84
2022/10/18 07:15:17;;;;;;;7.22;3.58;;;14.80;99.90;;;;;;5005532;28;20116;-84
2022/10/18 07:17:46;;;;;;;7.57;3.40;;;14.70;99.90;;;;;;4992053;28;20049;-84
2022/10/18 07:20:12;;;;;;;5.63;3.00;;;14.70;99.90;;;;;;5008755;28;20430;-84
2022/10/18 07:22:38;;;;;;;6.68;2.75;;;14.70;99.90;;;;;;5004835;28;20113;-84
2022/10/18 07:25:05;;;;;;;4.38;2.78;;;14.80;99.90;;;;;;5009506;28;20553;-84
2022/10/18 07:27:30;;;;;;;4.35;2.90;;;14.80;99.90;;;;;;5009054;28;20084;-84
2022/10/18 07:30:06;;;;;;;3.25;2.60;;;14.80;99.90;;;;;;5008230;28;20072;-85
2022/10/18 07:32:31;;;;;;;4.72;2.90;;;14.80;99.90;;;;;;4993082;28;20121;-84
2022/10/18 07:35:03;;;;;;;5.55;3.63;;;14.90;99.90;;;;;;5008815;28;20117;-84
2022/10/18 07:37:29;;;;;;;8.75;3.20;;;14.80;99.90;;;;;;5014676;28;20077;-85
2022/10/18 07:40:01;;;;;;;4.30;3.17;;;14.80;99.90;;;;;;5013128;28;20057;-84
2022/10/18 07:42:27;;;;;;;6.95;3.20;;;14.80;99.90;;;;;;5020651;28;20026;-84
2022/10/18 07:44:52;;;;;;;7.85;3.95;;;14.80;99.90;;;;;;5024188;28;20029;-85
2022/10/18 07:47:18;;;;;;;5.95;3.67;;;14.80;99.90;;;;;;5014052;28;20277;-84
2022/10/18 07:49:43;;;;;;;8.57;4.25;;;14.70;99.90;;;;;;5023973;28;20025;-84
2022/10/18 07:52:15;;;;;;;7.40;4.20;;;14.80;99.90;;;;;;5016033;28;20038;-85
2022/10/18 07:54:41;;;;;;;11.57;4.07;;;14.80;99.90;;;;;;5026516;28;20053;-85
2022/10/18 07:57:06;;;;;;;7.10;3.70;;;14.70;99.90;;;;;;5019372;28;20056;-85
2022/10/18 07:59:32;;;;;;;6.05;3.90;;;14.80;99.90;;;;;;5025047;28;20028;-85
2022/10/18 08:01:58;;;;;;;10.57;4.60;;;14.70;99.90;;;;;;5005435;28;20033;-84
2022/10/18 08:04:23;;;;;;;5.15;3.28;;;14.80;99.90;;;;;;5022670;28;20034;-85
2022/10/18 08:06:49;;;;;;;8.82;3.63;;;14.70;99.90;;;;;;5008138;28;20361;-85
2022/10/18 08:09:14;;;;;;;5.22;3.72;;;14.70;99.90;;;;;;5010743;28;20123;-85
2022/10/18 08:11:40;;;;;;;6.22;3.83;;;14.80;99.90;;;;;;5008412;28;20407;-85
2022/10/18 08:14:08;;;;;;;8.05;5.93;;;14.80;99.90;;;;;;5013187;28;20056;-85
2022/10/18 08:16:34;;;;;;;9.30;4.80;;;14.80;99.90;;;;;;5008280;28;20176;-85
2022/10/18 08:19:00;;;;;;;15.05;6.07;;;14.90;99.90;;;;;;5011751;28;20117;-85
2022/10/18 08:21:25;;;;;;;7.90;5.00;;;14.90;99.90;;;;;;5010056;28;20026;-85
2022/10/18 08:23:52;;;;;;;8.05;5.53;;;14.90;99.90;;;;;;5010869;28;20022;-85
2022/10/18 08:26:22;;;;;;;6.85;4.22;;;14.90;99.90;;;;;;5013644;28;20120;-86
2022/10/18 08:28:48;;;;;;;6.65;4.38;;;14.90;99.90;;;;;;5004844;28;20037;-85
2022/10/18 08:31:16;;;;;;;10.68;5.05;;;14.90;99.90;;;;;;5018474;28;20091;-85
2022/10/18 08:33:43;;;;;;;5.53;4.35;;;15.00;99.90;;;;;;5013143;28;20037;-85
2022/10/18 08:36:11;;;;;;;4.18;3.78;;;14.90;99.90;;;;;;5013995;28;20021;-84
2022/10/18 08:38:39;;;;;;;4.90;3.85;;;14.90;99.90;;;;;;5044262;28;20029;-84
2022/10/18 08:41:23;;;;;;;4.70;3.75;;;14.90;99.90;;;;;;5043111;28;20025;-84
2022/10/18 08:44:26;;;;;;;6.72;4.05;;;15.00;99.90;;;;;;5061469;28;20025;-85
2022/10/18 08:46:57;;;;;;;10.30;4.82;;;15.00;99.90;;;;;;5050632;28;20041;-84
2022/10/18 08:49:35;;;;;;;10.32;6.20;;;15.00;99.90;;;;;;5051970;28;20032;-84
2022/10/18 08:52:31;;;;;;;8.00;6.07;;;15.00;99.90;;;;;;5042281;28;20249;-84
2022/10/18 08:55:25;;;;;;;6.40;4.65;;;15.00;99.90;;;;;;5062383;28;20489;-84
2022/10/18 08:57:51;;;;;;;10.05;6.25;;;15.00;99.90;;;;;;5044922;28;20367;-85
2022/10/18 09:00:22;;;;;;;11.50;6.13;;;15.00;99.90;;;;;;5044752;28;20040;-85
2022/10/18 09:03:04;;;;;;;11.20;6.93;;;15.00;99.90;;;;;;5049465;28;20063;-85
2022/10/18 09:05:48;;;;;;;8.50;5.32;;;15.00;99.90;;;;;;5046622;28;20099;-84
2022/10/18 09:08:33;;;;;;;11.10;7.40;;;15.00;99.90;;;;;;5046807;28;20134;-85
2022/10/18 09:11:33;;;;;;;12.88;8.07;;;15.00;99.90;;;;;;5046654;28;20033;-85
2022/10/18 09:14:32;;;;;;;11.07;6.80;;;15.00;99.90;;;;;;5049371;28;20032;-85
2022/10/18 09:17:25;;;;;;;9.65;6.68;;;15.00;99.90;;;;;;5039630;28;20055;-86
2022/10/18 09:20:18;;;;;;;14.50;8.63;;;15.00;99.90;;;;;;5047309;28;20025;-85
2022/10/18 09:22:57;;;;;;;17.00;8.80;;;15.00;99.90;;;;;;5044205;28;20033;-85
2022/10/18 09:25:43;;;;;;;13.02;7.78;;;15.10;99.90;;;;;;5053611;28;20029;-85
2022/10/18 09:28:33;;;;;;;14.88;8.13;;;15.20;99.90;;;;;;5036364;28;20044;-85
2022/10/18 09:31:17;;;;;;;12.80;9.15;;;15.20;99.90;;;;;;5051445;28;20086;-85
2022/10/18 09:33:49;;;;;;;15.90;8.45;;;15.20;99.90;;;;;;5060993;28;20472;-85
2022/10/18 09:36:20;;;;;;;10.73;7.22;;;15.20;99.90;;;;;;5046765;28;20025;-84
2022/10/18 09:38:51;;;;;;;10.70;6.43;;;15.30;99.90;;;;;;5048438;28;20378;-84
2022/10/18 09:41:23;;;;;;;10.90;6.85;;;15.30;99.90;;;;;;5058145;28;20040;-84
2022/10/18 09:44:14;;;;;;;7.22;5.18;;;15.40;99.90;;;;;;5039658;28;20025;-83
2022/10/18 09:46:48;;;;;;;5.07;3.95;;;15.40;99.90;;;;;;5048952;28;20043;-84
2022/10/18 09:49:23;;;;;;;4.70;3.35;;;15.40;99.90;;;;;;5046184;28;20028;-85
2022/10/18 09:51:50;;;;;;;3.80;2.47;;;15.40;99.90;;;;;;5049889;28;20108;-84
2022/10/18 09:54:21;;;;;;;6.18;3.33;;;15.50;99.90;;;;;;5038224;28;20104;-84
2022/10/18 09:56:56;;;;;;;5.63;4.18;;;15.50;99.90;;;;;;5045127;28;20024;-84
2022/10/18 09:59:30;;;;;;;11.03;3.70;;;15.50;99.90;;;;;;5033820;28;20028;-85
2022/10/18 10:01:56;;;;;;;7.97;3.30;;;15.50;99.90;;;;;;5040644;28;20026;-85
2022/10/18 10:04:22;;;;;;;8.15;3.70;;;15.50;99.90;;;;;;5049390;28;20511;-85
2022/10/18 10:06:55;;;;;;;4.15;3.45;;;15.50;99.90;;;;;;5047292;28;20056;-85
2022/10/18 10:09:47;;;;;;;4.03;3.45;;;15.60;99.90;;;;;;5049464;28;20416;-85
2022/10/18 10:12:31;;;;;;;5.20;3.55;;;15.60;99.90;;;;;;5032367;28;20507;-85
2022/10/18 10:15:21;;;;;;;8.18;4.20;;;15.50;99.90;;;;;;5058527;28;20112;-85
2022/10/18 10:18:05;;;;;;;8.45;4.88;;;15.50;99.90;;;;;;5043659;28;20033;-85
2022/10/18 10:20:46;;;;;;;9.63;5.07;;;15.50;99.90;;;;;;5037620;28;20033;-85
2022/10/18 10:23:28;;;;;;;7.45;5.50;;;15.50;99.90;;;;;;5042703;28;20516;-86
2022/10/18 10:26:00;;;;;;;9.77;5.15;;;15.50;99.90;;;;;;5041829;28;20025;-86
2022/10/18 10:28:29;;;;;;;7.88;5.32;;;15.60;99.90;;;;;;5055459;28;20200;-85
2022/10/18 10:31:23;;;;;;;7.20;5.60;;;15.60;99.90;;;;;;5055665;28;20036;-85
2022/10/18 10:34:14;;;;;;;12.82;6.32;;;15.60;99.90;;;;;;5052782;28;20040;-84
2022/10/18 10:36:53;;;;;;;10.43;6.68;;;15.60;99.90;;;;;;5050792;28;20077;-86
2022/10/18 10:39:21;;;;;;;8.15;5.07;;;15.60;99.90;;;;;;5062218;28;20115;-85
2022/10/18 10:41:58;;;;;;;10.32;6.20;;;15.60;99.90;;;;;;5047531;28;20052;-84
2022/10/18 10:44:28;;;;;;;6.07;4.95;;;15.70;99.90;;;;;;5047691;28;20040;-85
2022/10/18 10:46:53;;;;;;;8.18;6.45;;;15.60;99.90;;;;;;5050660;28;20041;-86
2022/10/18 10:49:42;;;;;;;7.32;5.00;;;15.60;99.90;;;;;;5041565;28;20059;-85
2022/10/18 10:52:17;;;;;;;9.75;5.55;;;15.60;99.90;;;;;;5038540;28;20040;-85
2022/10/18 10:54:44;;;;;;;5.93;4.50;;;15.60;99.90;;;;;;5031015;28;20029;-85
2022/10/18 10:57:11;;;;;;;6.93;4.35;;;15.60;99.90;;;;;;5044217;28;20560;-86
2022/10/18 10:59:52;;;;;;;8.35;5.82;;;15.60;99.90;;;;;;5046986;28;20379;-86
2022/10/18 11:02:36;;;;;;;9.48;5.75;;;15.60;99.90;;;;;;5055377;28;20100;-85
2022/10/18 11:05:28;;;;;;;6.85;5.65;;;15.60;99.90;;;;;;5050123;28;20114;-85
2022/10/18 11:08:01;;;;;;;5.50;4.55;;;15.60;99.90;;;;;;5059951;28;20063;-86
2022/10/18 11:10:43;;;;;;;5.57;5.00;;;15.60;99.90;;;;;;5057618;28;20043;-84
2022/10/18 11:13:22;;;;;;;6.28;3.97;;;15.60;99.90;;;;;;5051749;28;21546;-86
2022/10/18 11:15:53;;;;;;;5.90;4.47;;;15.70;99.90;;;;;;5040617;28;20029;-85
2022/10/18 11:18:32;;;;;;;15.45;7.82;;;15.70;99.90;;;;;;5045432;28;20424;-86
2022/10/18 11:21:00;;;;;;;7.05;5.93;;;15.70;99.90;;;;;;5043547;28;20048;-86
2022/10/18 11:23:31;;;;;;;6.18;5.47;;;15.70;99.90;;;;;;5039159;28;20477;-86
2022/10/18 11:26:27;;;;;;;12.48;7.18;;;15.70;99.90;;;;;;5038807;28;20036;-87
2022/10/18 11:29:17;;;;;;;11.48;7.43;;;15.70;99.90;;;;;;5040211;28;20070;-87
2022/10/18 11:32:22;;;;;;;14.95;8.02;;;15.80;99.90;;;;;;5049342;28;20043;-87
2022/10/18 11:35:00;;;;;;;15.18;8.65;;;15.80;99.90;;;;;;5026092;28;20155;-87
2022/10/18 11:37:57;;;;;;;10.45;8.00;;;15.90;99.90;;;;;;5044871;28;20053;-87
2022/10/18 11:40:22;;;;;;;;;;;15.90;99.90;;;;;;5052251;28;20029;-88
2022/10/18 11:42:51;;;;;;;10.05;6.57;;;15.90;99.90;;;;;;5044252;28;19913;-86
2022/10/18 11:45:28;;;;;;;9.88;6.80;;;15.90;99.90;;;;;;5052327;28;20021;-88
2022/10/18 11:48:25;;;;;;;6.57;5.47;;;15.90;99.90;;;;;;5041226;28;20055;-87
2022/10/18 11:51:09;;;;;;;9.38;6.03;;;15.90;99.90;;;;;;5049887;28;20040;-89
2022/10/18 11:53:57;;;;;;;13.70;7.32;;;15.90;99.90;;;;;;5050587;28;20040;-88
2022/10/18 11:56:29;;;;;;;10.05;8.27;;;15.90;99.90;;;;;;5053381;28;20033;-87
2022/10/18 11:59:16;;;;;;;11.35;6.18;;;15.90;99.90;;;;;;5057576;28;20127;-88
2022/10/18 12:02:16;;;;;;;9.38;7.07;;;16.00;99.90;;;;;;5042715;28;20025;-88
2022/10/18 12:04:50;;;;;;;12.95;8.75;;;16.00;99.90;;;;;;5051629;28;20029;-88
2022/10/18 12:07:24;;;;;;;11.60;9.35;;;16.00;99.90;;;;;;5057362;28;20040;-87
2022/10/18 12:09:53;;;;;;;9.65;7.63;;;16.00;99.90;;;;;;5054344;28;20097;-88
2022/10/18 12:12:28;;;;;;;10.30;9.25;;;16.00;99.90;;;;;;5058274;28;20056;-88
2022/10/18 12:14:58;;;;;;;14.82;9.65;;;16.10;99.90;;;;;;5057221;28;20115;-89
2022/10/18 12:17:30;;;;;;;13.48;9.90;;;16.10;99.90;;;;;;5056043;28;20045;-89
2022/10/18 12:19:59;;;;;;;11.70;8.05;;;16.10;99.90;;;;;;5062563;28;20081;-90
2022/10/18 12:22:34;;;;;;;11.00;7.78;;;16.10;99.90;;;;;;5055704;28;20421;-89
2022/10/18 12:25:00;;;;;;;12.30;8.88;;;16.10;99.90;;;;;;5062072;28;20123;-88
2022/10/18 12:27:53;;;;;;;17.25;11.25;;;16.10;99.90;;;;;;5052421;28;20462;-89
2022/10/18 12:30:33;;;;;;;20.25;10.68;;;16.20;99.90;;;;;;5053582;28;20029;-89
2022/10/18 12:33:22;;;;;;;13.75;10.07;;;16.20;99.90;;;;;;5041693;28;20056;-90
2022/10/18 12:36:15;;;;;;;15.70;10.93;;;16.20;99.90;;;;;;5052458;28;20029;-89
2022/10/18 12:38:44;;;;;;;16.33;10.85;;;16.20;99.90;;;;;;5052719;28;20036;-90
2022/10/18 12:41:20;;;;;;;19.20;10.55;;;16.30;99.90;;;;;;5046111;28;20021;-87
2022/10/18 12:43:57;;;;;;;17.55;9.45;;;16.30;99.90;;;;;;5047774;28;20477;-88
2022/10/18 12:46:23;;;;;;;10.68;7.95;;;16.40;99.90;;;;;;5049964;28;20025;-90
2022/10/18 12:49:03;;;;;;;12.27;9.43;;;16.40;99.90;;;;;;5046627;28;20115;-88
2022/10/18 12:51:29;;;;;;;11.10;8.90;;;16.40;99.90;;;;;;5050822;28;20033;-89
2022/10/18 12:54:10;;;;;;;11.95;8.43;;;16.40;99.90;;;;;;5052256;28;20040;-89
2022/10/18 12:56:40;;;;;;;16.45;10.15;;;16.40;99.90;;;;;;5053829;28;20041;-89
2022/10/18 12:59:15;;;;;;;12.77;8.88;;;16.40;99.90;;;;;;5052622;28;20024;-89
2022/10/18 13:01:49;;;;;;;11.20;7.22;;;16.40;99.90;;;;;;5055513;28;20029;-88
2022/10/18 13:04:27;;;;;;;11.03;8.03;;;16.40;99.90;;;;;;5054227;28;20029;-89
2022/10/18 13:07:21;;;;;;;9.50;6.85;;;16.40;99.90;;;;;;5052471;28;20295;-90
2022/10/18 13:10:08;;;;;;;8.93;6.95;;;16.40;99.90;;;;;;5050882;28;20025;-88
2022/10/18 13:12:58;;;;;;;11.15;6.57;;;16.40;99.90;;;;;;5047124;28;20075;-89
2022/10/18 13:15:57;;;;;;;14.65;8.20;;;16.40;99.90;;;;;;5041661;28;20124;-88
2022/10/18 13:18:44;;;;;;;11.65;7.10;;;16.40;99.90;;;;;;5052061;28;20032;-88
2022/10/18 13:21:40;;;;;;;17.23;6.50;;;16.40;99.90;;;;;;5038823;28;20389;-89
2022/10/18 13:24:23;;;;;;;11.73;6.45;;;16.40;99.90;;;;;;5042656;28;20386;-88
2022/10/18 13:27:14;;;;;;;11.57;6.53;;;16.40;99.90;;;;;;5049040;28;20393;-89